Bear River, Wyoming
Current Conditions -  °F | °C
As of 2:53 PM on Sunday 23 Nov 2014 (Local Time) from KEVW Reporting Station
Broken Clouds Broken Clouds  
Wind Chill: 13°   Ceiling: 3900
Heat Index: 27°   Visibility: 10mi
Dew Point: 14°   Wind: 21mph
Humidity: 58%   Direction: 280°W
Pressure: 30.1"   Gusts: NA
Location:  41.2776°N, 110.814°W
Report Text: KEVW 232153Z AUTO 28018KT 10SM BKN039 M03/M10 A3010 RMK AO2 SLP214 T10281100
Loading
Personal Weather Stations






























Interactive Weather Map New forecast layout! Learn more

10-Day Weather Forecast

Advertisements
Track Severe Weather on mobile